sensor_id;sensor_type;location;lat;lon;timestamp;pressure;altitude;pressure_sealevel;temperature;humidity
70434;BME280;57876;47.792;12.960;2024-01-10T00:01:06;97478.13;;;19.49;39.65
70434;BME280;57876;47.792;12.960;2024-01-10T00:03:30;97479.25;;;19.48;39.54
70434;BME280;57876;47.792;12.960;2024-01-10T00:05:55;97478.78;;;19.46;39.71
70434;BME280;57876;47.792;12.960;2024-01-10T00:08:19;97469.44;;;19.47;39.63
70434;BME280;57876;47.792;12.960;2024-01-10T00:10:44;97471.38;;;19.47;39.78
70434;BME280;57876;47.792;12.960;2024-01-10T00:13:08;97467.34;;;19.44;39.72
70434;BME280;57876;47.792;12.960;2024-01-10T00:15:32;97476.38;;;19.45;39.56
70434;BME280;57876;47.792;12.960;2024-01-10T00:17:57;97478.63;;;19.43;39.68
70434;BME280;57876;47.792;12.960;2024-01-10T00:20:21;97473.47;;;19.41;39.84
70434;BME280;57876;47.792;12.960;2024-01-10T00:22:46;97475.41;;;19.41;39.57
70434;BME280;57876;47.792;12.960;2024-01-10T00:25:10;97472.16;;;19.39;39.83
70434;BME280;57876;47.792;12.960;2024-01-10T00:27:34;97472.50;;;19.37;39.57
70434;BME280;57876;47.792;12.960;2024-01-10T00:29:59;97476.38;;;19.36;39.68
70434;BME280;57876;47.792;12.960;2024-01-10T00:32:23;97471.22;;;19.34;39.64
70434;BME280;57876;47.792;12.960;2024-01-10T00:34:47;97472.38;;;19.33;39.62
70434;BME280;57876;47.792;12.960;2024-01-10T00:37:12;97472.69;;;19.32;39.71
70434;BME280;57876;47.792;12.960;2024-01-10T00:39:36;97472.69;;;19.32;39.73
70434;BME280;57876;47.792;12.960;2024-01-10T00:42:00;97473.00;;;19.30;39.77
70434;BME280;57876;47.792;12.960;2024-01-10T00:44:25;97468.66;;;19.29;40.05
70434;BME280;57876;47.792;12.960;2024-01-10T00:46:49;97480.41;;;19.30;39.79
70434;BME280;57876;47.792;12.960;2024-01-10T00:49:14;97477.19;;;19.28;39.73
70434;BME280;57876;47.792;12.960;2024-01-10T00:51:38;97480.41;;;19.30;39.67
70434;BME280;57876;47.792;12.960;2024-01-10T00:54:02;97482.38;;;19.29;39.96
70434;BME280;57876;47.792;12.960;2024-01-10T00:56:27;97482.06;;;19.31;39.55
70434;BME280;57876;47.792;12.960;2024-01-10T00:58:51;97484.78;;;19.31;39.73
70434;BME280;57876;47.792;12.960;2024-01-10T01:01:20;97488.00;;;19.33;39.69
70434;BME280;57876;47.792;12.960;2024-01-10T01:03:44;97492.38;;;19.34;39.58
70434;BME280;57876;47.792;12.960;2024-01-10T01:06:09;97491.22;;;19.35;39.63
70434;BME280;57876;47.792;12.960;2024-01-10T01:08:33;97483.00;;;19.35;39.48
70434;BME280;57876;47.792;12.960;2024-01-10T01:10:57;97483.00;;;19.35;39.94
70434;BME280;57876;47.792;12.960;2024-01-10T01:13:22;97488.47;;;19.35;39.78
70434;BME280;57876;47.792;12.960;2024-01-10T01:15:46;97493.31;;;19.38;39.81
70434;BME280;57876;47.792;12.960;2024-01-10T01:18:11;97491.38;;;19.39;39.61
70434;BME280;57876;47.792;12.960;2024-01-10T01:20:37;97496.06;;;19.38;39.40
70434;BME280;57876;47.792;12.960;2024-01-10T01:23:03;97491.72;;;19.37;39.71
70434;BME280;57876;47.792;12.960;2024-01-10T01:25:28;97493.31;;;19.38;39.43
70434;BME280;57876;47.792;12.960;2024-01-10T01:27:52;97488.16;;;19.36;39.61
70434;BME280;57876;47.792;12.960;2024-01-10T01:30:16;97490.91;;;19.36;39.54
70434;BME280;57876;47.792;12.960;2024-01-10T01:32:41;97492.38;;;19.34;39.77
70434;BME280;57876;47.792;12.960;2024-01-10T01:35:05;97499.47;;;19.35;39.80
70434;BME280;57876;47.792;12.960;2024-01-10T01:37:30;97491.06;;;19.31;39.55
70434;BME280;57876;47.792;12.960;2024-01-10T01:39:54;97491.88;;;19.32;39.76
70434;BME280;57876;47.792;12.960;2024-01-10T01:42:19;97504.00;;;19.31;39.70
70434;BME280;57876;47.792;12.960;2024-01-10T01:44:43;97501.56;;;19.29;39.89
70434;BME280;57876;47.792;12.960;2024-01-10T01:47:08;97496.38;;;19.28;39.76
70434;BME280;57876;47.792;12.960;2024-01-10T01:49:32;97503.00;;;19.27;39.77
70434;BME280;57876;47.792;12.960;2024-01-10T01:51:57;97493.97;;;19.26;39.79
70434;BME280;57876;47.792;12.960;2024-01-10T01:54:21;97508.34;;;19.23;39.79
70434;BME280;57876;47.792;12.960;2024-01-10T01:56:47;97507.53;;;19.23;40.09
70434;BME280;57876;47.792;12.960;2024-01-10T01:59:12;97495.28;;;19.20;39.86
70434;BME280;57876;47.792;12.960;2024-01-10T02:01:37;97504.13;;;19.17;40.03
70434;BME280;57876;47.792;12.960;2024-01-10T02:04:02;97498.66;;;19.17;39.63
70434;BME280;57876;47.792;12.960;2024-01-10T02:06:27;97503.69;;;19.15;39.80
70434;BME280;57876;47.792;12.960;2024-01-10T02:08:51;97498.50;;;19.13;39.64
70434;BME280;57876;47.792;12.960;2024-01-10T02:11:16;97494.78;;;19.09;39.93
70434;BME280;57876;47.792;12.960;2024-01-10T02:13:41;97488.19;;;19.10;39.74
70434;BME280;57876;47.792;12.960;2024-01-10T02:16:08;97500.25;;;19.09;39.76
70434;BME280;57876;47.792;12.960;2024-01-10T02:18:34;97500.59;;;19.08;39.47
70434;BME280;57876;47.792;12.960;2024-01-10T02:20:59;97501.41;;;19.08;39.79
70434;BME280;57876;47.792;12.960;2024-01-10T02:23:23;97495.44;;;19.06;39.79
70434;BME280;57876;47.792;12.960;2024-01-10T02:25:48;97498.19;;;19.06;39.66
70434;BME280;57876;47.792;12.960;2024-01-10T02:28:12;97500.91;;;19.06;40.02
70434;BME280;57876;47.792;12.960;2024-01-10T02:30:37;97493.53;;;19.07;39.75
70434;BME280;57876;47.792;12.960;2024-01-10T02:33:02;97498.19;;;19.06;39.88
70434;BME280;57876;47.792;12.960;2024-01-10T02:35:26;97496.56;;;19.05;39.81
70434;BME280;57876;47.792;12.960;2024-01-10T02:37:51;97496.72;;;19.09;39.70
70434;BME280;57876;47.792;12.960;2024-01-10T02:40:16;97490.13;;;19.10;39.78
70434;BME280;57876;47.792;12.960;2024-01-10T02:42:41;97494.16;;;19.12;39.82
70434;BME280;57876;47.792;12.960;2024-01-10T02:45:06;97493.03;;;19.13;39.60
70434;BME280;57876;47.792;12.960;2024-01-10T02:47:30;97494.63;;;19.14;39.35
70434;BME280;57876;47.792;12.960;2024-01-10T02:49:55;97483.34;;;19.16;39.66
70434;BME280;57876;47.792;12.960;2024-01-10T02:52:19;97492.06;;;19.18;39.86
70434;BME280;57876;47.792;12.960;2024-01-10T02:54:43;97488.19;;;19.19;39.58
70434;BME280;57876;47.792;12.960;2024-01-10T02:57:08;97490.13;;;19.19;39.72
70434;BME280;57876;47.792;12.960;2024-01-10T02:59:32;97488.66;;;19.21;39.88
70434;BME280;57876;47.792;12.960;2024-01-10T03:01:56;97494.94;;;19.22;39.74
70434;BME280;57876;47.792;12.960;2024-01-10T03:04:21;97489.47;;;19.22;39.69
70434;BME280;57876;47.792;12.960;2024-01-10T03:06:45;97490.25;;;19.22;39.67
70434;BME280;57876;47.792;12.960;2024-01-10T03:09:10;97487.06;;;19.20;39.81
70434;BME280;57876;47.792;12.960;2024-01-10T03:11:34;97483.19;;;19.21;39.79
70434;BME280;57876;47.792;12.960;2024-01-10T03:14:02;97485.13;;;19.21;39.61
70434;BME280;57876;47.792;12.960;2024-01-10T03:16:28;97483.19;;;19.21;39.83
70434;BME280;57876;47.792;12.960;2024-01-10T03:18:52;97479.94;;;19.19;40.10
70434;BME280;57876;47.792;12.960;2024-01-10T03:21:17;97470.91;;;19.19;39.71
70434;BME280;57876;47.792;12.960;2024-01-10T03:23:47;97485.78;;;19.18;39.63
70434;BME280;57876;47.792;12.960;2024-01-10T03:26:11;97484.13;;;19.17;39.66
70434;BME280;57876;47.792;12.960;2024-01-10T03:28:35;97477.84;;;19.16;39.80
70434;BME280;57876;47.792;12.960;2024-01-10T03:31:00;97480.91;;;19.14;39.65
70434;BME280;57876;47.792;12.960;2024-01-10T03:33:24;97482.84;;;19.14;39.72
70434;BME280;57876;47.792;12.960;2024-01-10T03:35:48;97486.41;;;19.14;39.90
70434;BME280;57876;47.792;12.960;2024-01-10T03:38:13;97484.31;;;19.11;39.51
70434;BME280;57876;47.792;12.960;2024-01-10T03:40:40;97476.41;;;19.10;39.90
70434;BME280;57876;47.792;12.960;2024-01-10T03:43:05;97492.03;;;19.09;39.74
70434;BME280;57876;47.792;12.960;2024-01-10T03:45:29;97499.16;;;19.10;40.04
70434;BME280;57876;47.792;12.960;2024-01-10T03:47:54;97493.19;;;19.08;39.75
70434;BME280;57876;47.792;12.960;2024-01-10T03:50:19;97490.44;;;19.08;39.66
70434;BME280;57876;47.792;12.960;2024-01-10T03:52:43;97495.91;;;19.08;39.88
70434;BME280;57876;47.792;12.960;2024-01-10T03:55:08;97495.13;;;19.08;39.69
70434;BME280;57876;47.792;12.960;2024-01-10T03:57:33;97502.53;;;19.07;39.75
70434;BME280;57876;47.792;12.960;2024-01-10T03:59:57;97500.25;;;19.09;39.75
70434;BME280;57876;47.792;12.960;2024-01-10T04:02:22;97503.00;;;19.09;39.53
70434;BME280;57876;47.792;12.960;2024-01-10T04:04:46;97504.63;;;19.10;39.67
70434;BME280;57876;47.792;12.960;2024-01-10T04:07:10;97509.63;;;19.08;39.69
70434;BME280;57876;47.792;12.960;2024-01-10T04:09:35;97508.50;;;19.09;39.80
70434;BME280;57876;47.792;12.960;2024-01-10T04:11:59;97508.50;;;19.09;39.55
70434;BME280;57876;47.792;12.960;2024-01-10T04:14:23;97503.84;;;19.10;39.76
70434;BME280;57876;47.792;12.960;2024-01-10T04:16:48;97507.69;;;19.09;39.72
70434;BME280;57876;47.792;12.960;2024-01-10T04:19:12;97511.22;;;19.09;39.69
70434;BME280;57876;47.792;12.960;2024-01-10T04:21:37;97510.13;;;19.10;39.75
70434;BME280;57876;47.792;12.960;2024-01-10T04:24:04;97512.38;;;19.08;39.69
70434;BME280;57876;47.792;12.960;2024-01-10T04:26:29;97512.38;;;19.08;39.75
70434;BME280;57876;47.792;12.960;2024-01-10T04:28:53;97510.44;;;19.09;39.96
70434;BME280;57876;47.792;12.960;2024-01-10T04:31:18;97506.88;;;19.08;39.78
70434;BME280;57876;47.792;12.960;2024-01-10T04:33:42;97517.06;;;19.08;39.79
70434;BME280;57876;47.792;12.960;2024-01-10T04:36:06;97513.50;;;19.07;39.69
70434;BME280;57876;47.792;12.960;2024-01-10T04:38:31;97510.28;;;19.05;39.70
70434;BME280;57876;47.792;12.960;2024-01-10T04:40:56;97506.25;;;19.03;39.81
70434;BME280;57876;47.792;12.960;2024-01-10T04:43:20;97506.91;;;19.00;39.50
70434;BME280;57876;47.792;12.960;2024-01-10T04:45:44;97507.22;;;18.98;39.84
70434;BME280;57876;47.792;12.960;2024-01-10T04:48:09;97511.09;;;18.97;39.26
70434;BME280;57876;47.792;12.960;2024-01-10T04:50:34;97503.50;;;18.94;39.80
70434;BME280;57876;47.792;12.960;2024-01-10T04:52:58;97509.63;;;18.91;39.84
70434;BME280;57876;47.792;12.960;2024-01-10T04:55:23;97515.44;;;18.89;39.67
70434;BME280;57876;47.792;12.960;2024-01-10T04:57:47;97516.22;;;18.90;39.65
70434;BME280;57876;47.792;12.960;2024-01-10T05:00:12;97516.88;;;18.87;39.72
70434;BME280;57876;47.792;12.960;2024-01-10T05:02:37;97524.59;;;18.85;39.80
70434;BME280;57876;47.792;12.960;2024-01-10T05:05:01;97515.88;;;18.83;39.75
70434;BME280;57876;47.792;12.960;2024-01-10T05:07:27;97520.91;;;18.81;39.86
70434;BME280;57876;47.792;12.960;2024-01-10T05:09:52;97523.16;;;18.79;39.63
70434;BME280;57876;47.792;12.960;2024-01-10T05:12:16;97525.91;;;18.79;39.92
70434;BME280;57876;47.792;12.960;2024-01-10T05:14:41;97525.41;;;18.77;39.63
70434;BME280;57876;47.792;12.960;2024-01-10T05:17:05;97526.19;;;18.77;39.60
70434;BME280;57876;47.792;12.960;2024-01-10T05:19:29;97523.47;;;18.77;39.55
70434;BME280;57876;47.792;12.960;2024-01-10T05:21:54;97522.66;;;18.77;39.62
70434;BME280;57876;47.792;12.960;2024-01-10T05:24:18;97532.50;;;18.78;39.81
70434;BME280;57876;47.792;12.960;2024-01-10T05:26:46;97525.41;;;18.77;39.72
70434;BME280;57876;47.792;12.960;2024-01-10T05:29:11;97524.28;;;18.78;39.78
70434;BME280;57876;47.792;12.960;2024-01-10T05:31:38;97522.66;;;18.77;39.71
70434;BME280;57876;47.792;12.960;2024-01-10T05:34:03;97524.28;;;18.78;39.66
70434;BME280;57876;47.792;12.960;2024-01-10T05:36:29;97529.78;;;18.78;39.60
70434;BME280;57876;47.792;12.960;2024-01-10T05:38:53;97524.28;;;18.78;39.66
70434;BME280;57876;47.792;12.960;2024-01-10T05:41:17;97528.94;;;18.77;39.56
70434;BME280;57876;47.792;12.960;2024-01-10T05:43:42;97530.56;;;18.78;39.64
70434;BME280;57876;47.792;12.960;2024-01-10T05:46:09;97533.31;;;18.78;39.66
70434;BME280;57876;47.792;12.960;2024-01-10T05:48:34;97533.81;;;18.80;39.73
70434;BME280;57876;47.792;12.960;2024-01-10T05:50:58;97532.97;;;18.80;39.64
70434;BME280;57876;47.792;12.960;2024-01-10T05:53:24;97539.75;;;18.82;39.62
70434;BME280;57876;47.792;12.960;2024-01-10T05:55:48;97536.72;;;18.84;39.56
70434;BME280;57876;47.792;12.960;2024-01-10T05:58:13;97534.47;;;18.86;39.88
70434;BME280;57876;47.792;12.960;2024-01-10T06:00:37;97536.06;;;18.87;39.58
70434;BME280;57876;47.792;12.960;2024-01-10T06:03:02;97522.06;;;18.88;39.31
70434;BME280;57876;47.792;12.960;2024-01-10T06:05:26;97522.50;;;18.90;39.54
70434;BME280;57876;47.792;12.960;2024-01-10T06:07:51;97528.19;;;18.94;39.64
70434;BME280;57876;47.792;12.960;2024-01-10T06:10:15;97531.38;;;18.96;39.34
70434;BME280;57876;47.792;12.960;2024-01-10T06:12:39;97537.06;;;19.00;39.63
70434;BME280;57876;47.792;12.960;2024-01-10T06:15:04;97526.88;;;19.00;39.67
70434;BME280;57876;47.792;12.960;2024-01-10T06:17:30;97538.84;;;19.04;39.44
70434;BME280;57876;47.792;12.960;2024-01-10T06:19:55;97528.66;;;19.05;39.40
70434;BME280;57876;47.792;12.960;2024-01-10T06:22:20;97535.09;;;19.09;39.25
70434;BME280;57876;47.792;12.960;2024-01-10T06:24:49;97531.25;;;19.10;39.37
70434;BME280;57876;47.792;12.960;2024-01-10T06:27:13;97536.91;;;19.13;39.43
70434;BME280;57876;47.792;12.960;2024-01-10T06:29:38;97539.63;;;19.13;39.43
70434;BME280;57876;47.792;12.960;2024-01-10T06:32:05;97544.47;;;19.17;39.45
70434;BME280;57876;47.792;12.960;2024-01-10T06:34:30;97544.16;;;19.18;39.44
70434;BME280;57876;47.792;12.960;2024-01-10T06:36:55;97547.41;;;19.20;39.79
70434;BME280;57876;47.792;12.960;2024-01-10T06:39:19;97541.06;;;19.20;39.36
70434;BME280;57876;47.792;12.960;2024-01-10T06:41:44;97543.50;;;19.21;39.69
70434;BME280;57876;47.792;12.960;2024-01-10T06:44:08;97544.31;;;19.22;39.33
70434;BME280;57876;47.792;12.960;2024-01-10T06:46:32;97541.56;;;19.22;39.48
70434;BME280;57876;47.792;12.960;2024-01-10T06:48:57;97552.22;;;19.23;39.31
70434;BME280;57876;47.792;12.960;2024-01-10T06:51:23;97549.50;;;19.23;39.43
70434;BME280;57876;47.792;12.960;2024-01-10T06:53:47;97549.16;;;19.25;39.68
70434;BME280;57876;47.792;12.960;2024-01-10T06:56:12;97550.78;;;19.26;39.59
70434;BME280;57876;47.792;12.960;2024-01-10T06:58:36;97549.94;;;19.25;39.43
70434;BME280;57876;47.792;12.960;2024-01-10T07:01:00;97554.63;;;19.25;39.57
70434;BME280;57876;47.792;12.960;2024-01-10T07:03:25;97551.59;;;19.26;39.41
70434;BME280;57876;47.792;12.960;2024-01-10T07:05:50;97554.63;;;19.25;39.30
70434;BME280;57876;47.792;12.960;2024-01-10T07:08:14;97562.88;;;19.25;39.40
70434;BME280;57876;47.792;12.960;2024-01-10T07:10:38;97557.88;;;19.27;39.60
70434;BME280;57876;47.792;12.960;2024-01-10T07:13:03;97557.06;;;19.26;39.49
70434;BME280;57876;47.792;12.960;2024-01-10T07:15:28;97563.34;;;19.27;39.41
70434;BME280;57876;47.792;12.960;2024-01-10T07:17:52;97557.06;;;19.26;39.25
70434;BME280;57876;47.792;12.960;2024-01-10T07:20:17;97572.38;;;19.27;39.11
70434;BME280;57876;47.792;12.960;2024-01-10T07:22:41;97568.84;;;19.27;39.34
70434;BME280;57876;47.792;12.960;2024-01-10T07:25:08;97571.59;;;19.27;39.46
70434;BME280;57876;47.792;12.960;2024-01-10T07:27:38;97570.44;;;19.28;39.36
70434;BME280;57876;47.792;12.960;2024-01-10T07:30:08;97573.19;;;19.28;39.33
70434;BME280;57876;47.792;12.960;2024-01-10T07:32:42;97572.06;;;19.29;39.34
70434;BME280;57876;47.792;12.960;2024-01-10T07:35:07;97572.88;;;19.29;39.40
70434;BME280;57876;47.792;12.960;2024-01-10T07:37:39;97562.56;;;19.26;39.21
70434;BME280;57876;47.792;12.960;2024-01-10T07:40:05;97571.59;;;19.27;39.25
70434;BME280;57876;47.792;12.960;2024-01-10T07:42:35;97574.31;;;19.27;39.48
70434;BME280;57876;47.792;12.960;2024-01-10T07:45:00;97578.22;;;19.26;39.49
70434;BME280;57876;47.792;12.960;2024-01-10T07:47:28;97574.63;;;19.25;39.35
70434;BME280;57876;47.792;12.960;2024-01-10T07:49:52;97579.00;;;19.26;39.49
70434;BME280;57876;47.792;12.960;2024-01-10T07:52:17;97579.00;;;19.26;39.41
70434;BME280;57876;47.792;12.960;2024-01-10T07:54:41;97590.78;;;19.27;39.35
70434;BME280;57876;47.792;12.960;2024-01-10T07:57:06;97586.91;;;19.28;39.67
70434;BME280;57876;47.792;12.960;2024-01-10T07:59:30;97585.28;;;19.27;39.55
70434;BME280;57876;47.792;12.960;2024-01-10T08:01:56;97592.88;;;19.30;39.67
70434;BME280;57876;47.792;12.960;2024-01-10T08:04:22;97598.34;;;19.30;39.29
70434;BME280;57876;47.792;12.960;2024-01-10T08:06:47;97597.25;;;19.31;39.22
70434;BME280;57876;47.792;12.960;2024-01-10T08:09:11;97594.50;;;19.31;39.55
70434;BME280;57876;47.792;12.960;2024-01-10T08:11:35;97590.63;;;19.32;39.39
70434;BME280;57876;47.792;12.960;2024-01-10T08:14:00;97597.41;;;19.34;39.47
70434;BME280;57876;47.792;12.960;2024-01-10T08:16:25;97594.31;;;19.36;39.39
70434;BME280;57876;47.792;12.960;2024-01-10T08:18:49;97592.88;;;19.39;39.37
70434;BME280;57876;47.792;12.960;2024-01-10T08:21:13;97603.84;;;19.39;39.36
70434;BME280;57876;47.792;12.960;2024-01-10T08:23:38;97598.22;;;19.35;39.02
70434;BME280;57876;47.792;12.960;2024-01-10T08:26:02;97600.78;;;19.40;39.42
70434;BME280;57876;47.792;12.960;2024-01-10T08:28:26;97602.72;;;19.40;39.44
70434;BME280;57876;47.792;12.960;2024-01-10T08:30:51;97607.88;;;19.41;39.32
70434;BME280;57876;47.792;12.960;2024-01-10T08:33:16;97613.38;;;19.41;39.27
70434;BME280;57876;47.792;12.960;2024-01-10T08:35:42;97611.75;;;19.40;39.35
70434;BME280;57876;47.792;12.960;2024-01-10T08:38:07;97621.59;;;19.41;39.32
70434;BME280;57876;47.792;12.960;2024-01-10T08:40:31;97624.34;;;19.41;39.17
70434;BME280;57876;47.792;12.960;2024-01-10T08:42:56;97627.09;;;19.41;39.19
70434;BME280;57876;47.792;12.960;2024-01-10T08:45:20;97627.09;;;19.41;39.42
70434;BME280;57876;47.792;12.960;2024-01-10T08:47:45;97614.19;;;19.42;39.33
70434;BME280;57876;47.792;12.960;2024-01-10T08:50:10;97627.91;;;19.42;39.14
70434;BME280;57876;47.792;12.960;2024-01-10T08:52:35;97615.00;;;19.42;39.43
70434;BME280;57876;47.792;12.960;2024-01-10T08:55:01;97621.13;;;19.39;39.36
70434;BME280;57876;47.792;12.960;2024-01-10T08:57:26;97625.47;;;19.40;39.33
70434;BME280;57876;47.792;12.960;2024-01-10T08:59:54;97624.34;;;19.41;39.10
70434;BME280;57876;47.792;12.960;2024-01-10T09:02:18;97627.09;;;19.41;39.09
70434;BME280;57876;47.792;12.960;2024-01-10T09:04:43;97630.97;;;19.40;39.25
70434;BME280;57876;47.792;12.960;2024-01-10T09:07:07;97629.03;;;19.41;39.26
70434;BME280;57876;47.792;12.960;2024-01-10T09:09:33;97621.94;;;19.40;39.28
70434;BME280;57876;47.792;12.960;2024-01-10T09:11:57;97632.09;;;19.39;39.03
70434;BME280;57876;47.792;12.960;2024-01-10T09:14:22;97627.72;;;19.38;39.24
70434;BME280;57876;47.792;12.960;2024-01-10T09:16:46;97637.91;;;19.38;39.18
70434;BME280;57876;47.792;12.960;2024-01-10T09:19:10;97642.09;;;19.35;39.26
70434;BME280;57876;47.792;12.960;2024-01-10T09:21:35;97637.75;;;19.34;39.21
70434;BME280;57876;47.792;12.960;2024-01-10T09:23:59;97640.00;;;19.32;39.29
70434;BME280;57876;47.792;12.960;2024-01-10T09:26:24;97642.25;;;19.30;39.13
70434;BME280;57876;47.792;12.960;2024-01-10T09:28:48;97642.41;;;19.25;39.43
70434;BME280;57876;47.792;12.960;2024-01-10T09:31:13;97640.63;;;19.20;39.14
70434;BME280;57876;47.792;12.960;2024-01-10T09:33:37;97641.25;;;19.17;39.07
70434;BME280;57876;47.792;12.960;2024-01-10T09:36:02;97636.59;;;19.18;39.15
70434;BME280;57876;47.792;12.960;2024-01-10T09:38:27;97636.59;;;19.18;39.09
70434;BME280;57876;47.792;12.960;2024-01-10T09:40:59;97635.47;;;19.19;39.03
70434;BME280;57876;47.792;12.960;2024-01-10T09:43:29;97638.38;;;19.22;39.02
70434;BME280;57876;47.792;12.960;2024-01-10T09:45:54;97637.06;;;19.20;38.94
70434;BME280;57876;47.792;12.960;2024-01-10T09:48:18;97640.00;;;19.23;39.00
70434;BME280;57876;47.792;12.960;2024-01-10T09:50:43;97633.06;;;19.26;38.78
70434;BME280;57876;47.792;12.960;2024-01-10T09:53:16;97635.97;;;19.29;38.96
70434;BME280;57876;47.792;12.960;2024-01-10T09:55:46;97629.03;;;19.32;39.09
70434;BME280;57876;47.792;12.960;2024-01-10T09:58:10;97629.81;;;19.32;38.97
70434;BME280;57876;47.792;12.960;2024-01-10T10:00:36;97624.84;;;19.34;39.10
70434;BME280;57876;47.792;12.960;2024-01-10T10:03:02;97620.94;;;19.35;39.04
70434;BME280;57876;47.792;12.960;2024-01-10T10:05:28;97614.81;;;19.39;38.84
70434;BME280;57876;47.792;12.960;2024-01-10T10:07:53;97611.75;;;19.40;38.98
70434;BME280;57876;47.792;12.960;2024-01-10T10:10:18;97606.28;;;19.40;39.06
70434;BME280;57876;47.792;12.960;2024-01-10T10:12:44;97616.13;;;19.41;39.03
70434;BME280;57876;47.792;12.960;2024-01-10T10:15:13;97616.94;;;19.42;38.89
70434;BME280;57876;47.792;12.960;2024-01-10T10:17:39;97609.50;;;19.42;38.94
70434;BME280;57876;47.792;12.960;2024-01-10T10:20:10;97611.13;;;19.43;38.96
70434;BME280;57876;47.792;12.960;2024-01-10T10:22:35;97613.84;;;19.43;39.10
70434;BME280;57876;47.792;12.960;2024-01-10T10:25:01;97613.84;;;19.43;38.93
70434;BME280;57876;47.792;12.960;2024-01-10T10:27:28;97617.41;;;19.44;38.95
70434;BME280;57876;47.792;12.960;2024-01-10T10:29:53;97613.56;;;19.45;38.82
70434;BME280;57876;47.792;12.960;2024-01-10T10:32:18;97612.25;;;19.42;38.82
70434;BME280;57876;47.792;12.960;2024-01-10T10:34:42;97608.38;;;19.43;38.60
70434;BME280;57876;47.792;12.960;2024-01-10T10:37:07;97608.38;;;19.43;38.99
70434;BME280;57876;47.792;12.960;2024-01-10T10:39:31;97602.88;;;19.43;38.99
70434;BME280;57876;47.792;12.960;2024-01-10T10:41:56;97602.88;;;19.43;38.59
70434;BME280;57876;47.792;12.960;2024-01-10T10:44:24;97606.44;;;19.44;38.95
70434;BME280;57876;47.792;12.960;2024-01-10T10:46:56;97600.94;;;19.44;38.89
70434;BME280;57876;47.792;12.960;2024-01-10T10:49:28;97608.38;;;19.43;38.87
70434;BME280;57876;47.792;12.960;2024-01-10T10:51:57;97600.13;;;19.43;38.96
70434;BME280;57876;47.792;12.960;2024-01-10T10:54:22;97599.34;;;19.43;38.86
70434;BME280;57876;47.792;12.960;2024-01-10T10:56:49;97606.78;;;19.42;38.88
70434;BME280;57876;47.792;12.960;2024-01-10T10:59:16;97605.63;;;19.43;38.90
70434;BME280;57876;47.792;12.960;2024-01-10T11:01:43;97595.00;;;19.42;38.89
70434;BME280;57876;47.792;12.960;2024-01-10T11:04:10;97596.91;;;19.41;39.10
70434;BME280;57876;47.792;12.960;2024-01-10T11:06:34;97601.28;;;19.42;38.88
70434;BME280;57876;47.792;12.960;2024-01-10T11:09:04;97598.53;;;19.42;38.99
70434;BME280;57876;47.792;12.960;2024-01-10T11:14:09;97600.78;;;19.40;38.89
70434;BME280;57876;47.792;12.960;2024-01-10T11:22:23;97596.44;;;19.39;38.94
70434;BME280;57876;47.792;12.960;2024-01-10T11:24:54;97593.22;;;19.37;39.01
70434;BME280;57876;47.792;12.960;2024-01-10T11:27:19;97591.13;;;19.34;38.90
70434;BME280;57876;47.792;12.960;2024-01-10T11:29:46;97589.47;;;19.33;38.99
70434;BME280;57876;47.792;12.960;2024-01-10T11:32:17;97594.97;;;19.33;39.33
70434;BME280;57876;47.792;12.960;2024-01-10T11:34:58;97591.13;;;19.34;39.02
70434;BME280;57876;47.792;12.960;2024-01-10T11:37:28;97588.69;;;19.32;38.71
70434;BME280;57876;47.792;12.960;2024-01-10T11:39:53;97589.47;;;19.33;38.76
70434;BME280;57876;47.792;12.960;2024-01-10T11:42:24;97588.84;;;19.36;38.76
70434;BME280;57876;47.792;12.960;2024-01-10T11:45:04;97585.78;;;19.38;38.88
70434;BME280;57876;47.792;12.960;2024-01-10T11:47:29;97584.63;;;19.39;38.79
70434;BME280;57876;47.792;12.960;2024-01-10T11:49:55;97579.50;;;19.37;38.67
70434;BME280;57876;47.792;12.960;2024-01-10T11:52:22;97586.59;;;19.38;38.90
70434;BME280;57876;47.792;12.960;2024-01-10T11:54:47;97588.22;;;19.39;38.78
70434;BME280;57876;47.792;12.960;2024-01-10T11:57:22;97590.75;;;19.96;38.74
70434;BME280;57876;47.792;12.960;2024-01-10T11:59:56;97595.47;;;20.43;38.43
70434;BME280;57876;47.792;12.960;2024-01-10T12:02:21;97589.31;;;20.84;38.31
70434;BME280;57876;47.792;12.960;2024-01-10T12:04:46;97583.78;;;21.14;38.19
70434;BME280;57876;47.792;12.960;2024-01-10T12:07:15;97574.56;;;21.40;37.83
70434;BME280;57876;47.792;12.960;2024-01-10T12:09:39;97585.00;;;21.67;37.88
70434;BME280;57876;47.792;12.960;2024-01-10T12:12:04;97575.44;;;21.86;37.37
70434;BME280;57876;47.792;12.960;2024-01-10T12:14:30;97571.38;;;22.04;37.45
70434;BME280;57876;47.792;12.960;2024-01-10T12:16:54;97569.81;;;22.15;37.26
70434;BME280;57876;47.792;12.960;2024-01-10T12:19:19;97564.69;;;22.26;36.94
70434;BME280;57876;47.792;12.960;2024-01-10T12:21:43;97566.31;;;22.39;36.70
70434;BME280;57876;47.792;12.960;2024-01-10T12:24:08;97559.88;;;22.48;36.59
70434;BME280;57876;47.792;12.960;2024-01-10T12:26:32;97556.66;;;22.58;36.79
70434;BME280;57876;47.792;12.960;2024-01-10T12:28:58;97558.50;;;22.66;36.49
70434;BME280;57876;47.792;12.960;2024-01-10T12:31:24;97559.41;;;22.70;36.52
70434;BME280;57876;47.792;12.960;2024-01-10T12:33:51;97555.63;;;22.75;36.32
70434;BME280;57876;47.792;12.960;2024-01-10T12:36:17;97553.44;;;22.80;36.30
70434;BME280;57876;47.792;12.960;2024-01-10T12:38:41;97561.78;;;22.23;36.68
70434;BME280;57876;47.792;12.960;2024-01-10T12:41:06;97557.31;;;21.85;36.69
70434;BME280;57876;47.792;12.960;2024-01-10T12:43:33;97556.84;;;21.49;36.85
70434;BME280;57876;47.792;12.960;2024-01-10T12:46:07;97556.53;;;21.84;36.59
70434;BME280;57876;47.792;12.960;2024-01-10T12:48:32;97557.38;;;22.09;36.67